Terminal Aerodrome Forecast
Issued by NWS Northern Indiana

Home | Current Version | Previous Version | Graphics & Text | Print | Product List | Glossary On
Versions: 1 2 3 4 5 6 7 8 9 10 11 12
000
FTUS43 KIWX 211720
TAFFWA
TAF
KFWA 211720Z 2118/2218 28012G18KT P6SM SCT035 BKN050
     FM220000 29008KT P6SM SCT050
     FM220400 26004KT P6SM FEW050=

USA.gov is the U.S. government's official web portal to all federal, state and local government web resources and services.